NCAR-RAP Real-Time Weather Data

Output produced by METARs form (17 December 2018  15:45 UTC)
found at http://weather.rap.ucar.edu/surface/
 
RJOI 171455Z 29007KT 9999 FEW030 SCT085 08/M01 A3005 RMK SLP174 T00831011 401280067 51014
RJOI 171355Z 32008G16KT 9999 FEW030 BKN065 08/M01 A3003 RMK SLP170 T00831006
RJOI 171255Z 30004KT 9999 FEW030 FEW060 07/02 A3002 RMK SLP165 T00670017
RJOI 171155Z 00000KT 9999 FEW030 SCT060 09/00 A3001 RMK SLP160 70020 T00890000 10122 20083 51007
RJOI 171055Z 00000KT 9999 FEW030 SCT040 BKN070 09/00 A3000 RMK SLP159 T00940000
RJOI 170955Z 00000KT 9999 SCT040 BKN070 09/00 A2999 RMK SLP157 T00940000
RJOI 170855Z VRB04KT 9999 BKN045 BKN070 10/M01 A2998 RMK SLP151 T01001011 52020
RJOI 170755Z 30007KT 9999 BKN050 BKN070 11/M01 A2996 RMK SLP146 T01061006
RJOI 170655Z 29009KT 9999 SCT050 BKN070 12/M01 A2994 RMK SLP140 T01171006
RJOI 170555Z 29010G18KT 9999 FEW030 BKN050 12/M01 A2992 RMK SLP133 T01221006 10128 20089 56003
RJOI 170455Z 29010G16KT 9999 FEW030 BKN050 13/01 A2992 RMK SLP133 T01280006
RJOI 170355Z 29011G18KT 9999 FEW030 SCT040 SCT060 13/02 A2993 RMK SLP135 T01280017
RJOI 170255Z 27011KT 9999 FEW030 FEW050 12/03 A2994 RMK SLP138 T01220028 58007
RJOI 170155Z 28007KT 9999 FEW030 SCT045 BKN080 11/06 A2996 RMK SLP146 T01110056
RJOI 170055Z 30005KT 9999 FEW020 BKN040 BKN050 10/06 A2997 RMK SLP149 T01000061
RJOI 162355Z 30006KT 9999 FEW005 FEW020 BKN040 09/06 A2996 RMK SLP144 T00890056 10089 20072 53010
RJOI 162255Z 29005KT 9999 FEW005 FEW015 BKN014 08/06 A2994 RMK SLP137 T00830056
RJOI 162155Z 31008KT 9999 FEW005 FEW010 BKN040 08/05 A2994 RMK SLP137 T00780050
RJOI 162055Z 30006KT 9999 FEW030 BKN060 08/05 A2992 RMK SLP133 T00780050 53003
RJOI 161955Z 30005KT 9999 FEW015 SCT060 07/05 A2992 RMK SLP131 T00720050
RJOI 161855Z 30005KT 9999 FEW030 08/06 A2992 RMK SLP130 T00780056
RJOI 161755Z 30006KT 9999 SCT015 SCT070 08/06 A2992 RMK SLP131 60020 T00830061 10100 20083 58017
RJOI 161655Z 31006KT 9999 FEW025 BKN065 BKN080 08/07 A2993 RMK SLP136 T00830067
RJOI 161555Z 32004KT 9999 FEW010 BKN050 BKN080 09/07 A2995 RMK SHRAE44 SLP142 P0001 T00890067
RJOI 161455Z 30004KT 9999 -SHRA FEW020 BKN030 BKN070 09/07 A2997 RMK SLP147 P0006 60019 T00890067 401000033 58017
RJOI 161355Z 30003KT 4800 -SHRA BR FEW015 OVC060 09/07 A2999 RMK SLP157 P0007 T00890072
RJOI 161255Z 32003KT 4800 -SHRA BR FEW010 FEW020 OVC060 09/07 A3002 RMK SLP164 P0006 T00940072
RJOI 161155Z 35005KT 3200 SHRA BR FEW006 BKN020 OVC045 09/07 A3001 RMK SLP163 P0011 60037 70059 T00940072 10094 20083 56010
RJOI 161055Z 33006KT 3200 -SHRA BR FEW008 BKN015 OVC030 09/07 A3002 RMK SLP164 P0004 T00940072
RJOI 160955Z 31005KT 3200 -SHRA BR SCT008 BKN015 OVC030 08/07 A3003 RMK SLP169 P0004 T00830067
RJOI 160855Z 32004KT 3200 -SHRA BR SCT008 BKN010 OVC030 08/07 A3005 RMK SLP175 P0004 60018 T00830067 56017
RJOI 160755Z 30006KT 3200 -SHRA BR SCT008 BKN012 OVC030 08/06 A3006 RMK SLP178 P0006 T00830061
RJOI 160655Z 30005KT 3200 -SHRA BR SCT008 BKN020 OVC040 08/07 A3008 RMK SLP184 P0008 T00830067
RJOI 160555Z 33003KT 4800 -SHRA BR SCT010 BKN030 OVC050 08/06 A3009 RMK SLP190 P0008 60022 T00830061 10089 20056 56027
RJOI 160455Z 32004KT 4800 -SHRA BR SCT015 BKN040 OVC050 08/06 A3011 RMK SLP196 P0005 T00830061
RJOI 160355Z 33004KT 6000 -SHRA FEW020 BKN030 OVC060 08/06 A3015 RMK SLP208 T0006 T00830056
RJOI 160255Z 29003KT 8000 -RA FEW025 BKN040 OVC060 08/04 A3017 RMK RAE0156B17 SLP217 P0003 60003 T00830044 58027
RJOI 160155Z 00000KT 9999 -RA FEW025 BKN050 BKN065 08/03 A3022 RMK RAB45 SLP232 P0000 T00830033
RJOI 160055Z 31005KT 9999 FEW025 BKN050 BKN120 07/02 A3025 RMK SLP242 T00670022
RJOI 152355Z 31006KT 9999 FEW020 BKN050 BKN120 06/02 A3025 RMK SLP244 T00560017 10056 20033 56003
RJOI 151355Z 30008KT 9999 FEW030 06/02 A3036 RMK SLP279 LAST T00560017
RJOI 151255Z 31007KT 9999 FEW030 06/02 A3038 RMK SLP287 T00610017
RJOI 151155Z 30008KT 9999 SCT030 07/02 A3038 RMK SLP288 7//// T00670017 10117 20067 50003
RJOI 151055Z 30007KT 9999 FEW030 07/02 A3039 RMK SLP290 T00720017
RJOI 150955Z 31004KT 9999 FEW030 BKN050 08/02 A3038 RMK SLP288 T00830022
RJOI 150855Z COR 29004KT 9999 SCT040 BKN180 09/02 A3038 RMK SLP287 T00890017 56003
RJOI 150755Z 00000KT 9999 BKN040 BKN180 11/01 A3037 RMK SLP285 T01060006
RJOI 150655Z VRB05KT 9999 BKN035 BKN070 12/01 A3038 RMK SLP286 T01170011
RJOI 150555Z 00000KT 9999 BKN035 BKN070 11/01 A3038 RMK SLP288 T01060006 10122 20061 55014
RJOI 150455Z 06004KT 9999 BKN035 BKN070 12/01 A3038 RMK SLP286 T01220011
RJOI 150355Z 00000KT 9999 BKN035 BKN070 11/01 A3040 RMK SLP295 T01110011